BOE77UK VTUK-VTBD
Flight info
| Callsign | BOE77UK |
|---|---|
| Flight time | 0h 37m |
| Altitude | 28000 |
| Route | NEMTE1B NEMTE Y2 UBLOD ENDUU3A |
| Aircraft | B772/H-SDE2E3FGHIJ5LORVWXY/LB1D1 |
Departure
| Time | 2026-05-06 09:56 |
|---|---|
| Airport | Khon Kaen Airport (VTUK) |
Arrival
| Time | 2026-05-06 10:33 |
|---|---|
| Airport | Don Mueang International Airport (VTBD) |
| Time | Latitude | Longitude | Altitude | Speed | Heading |
|---|---|---|---|---|---|
| 2026-05-06 09:44 | 16.46569 | 102.78611 | 679 ft | 0 kts | 123° |
| 2026-05-06 09:51 | 16.46571 | 102.78608 | 680 ft | 3 kts | 122° |
| 2026-05-06 09:51 | 16.46585 | 102.78583 | 680 ft | 4 kts | 115° |
| 2026-05-06 09:52 | 16.46594 | 102.78557 | 680 ft | 4 kts | 101° |
| 2026-05-06 09:52 | 16.46595 | 102.78531 | 674 ft | 4 kts | 65° |
| 2026-05-06 09:52 | 16.46588 | 102.78520 | 680 ft | 0 kts | 33° |
| 2026-05-06 09:54 | 16.46654 | 102.78564 | 680 ft | 31 kts | 33° |
| 2026-05-06 09:54 | 16.46751 | 102.78630 | 680 ft | 38 kts | 33° |
| 2026-05-06 09:54 | 16.46847 | 102.78694 | 680 ft | 40 kts | 33° |
| 2026-05-06 09:55 | 16.47080 | 102.78843 | 677 ft | 24 kts | 19° |
| 2026-05-06 09:55 | 16.47186 | 102.78741 | 673 ft | 23 kts | 264° |
| 2026-05-06 09:55 | 16.46857 | 102.78497 | 677 ft | 114 kts | 213° |
| 2026-05-06 09:55 | 16.45962 | 102.77892 | 993 ft | 167 kts | 212° |
| 2026-05-06 09:56 | 16.44981 | 102.77238 | 2162 ft | 163 kts | 212° |
| 2026-05-06 09:56 | 16.44069 | 102.76626 | 3606 ft | 149 kts | 211° |
| 2026-05-06 09:56 | 16.43129 | 102.76010 | 4209 ft | 179 kts | 212° |
| 2026-05-06 09:56 | 16.41981 | 102.75239 | 4768 ft | 205 kts | 213° |
| 2026-05-06 09:57 | 16.40781 | 102.74438 | 5742 ft | 205 kts | 213° |
| 2026-05-06 09:57 | 16.39543 | 102.73606 | 6491 ft | 220 kts | 213° |
| 2026-05-06 09:57 | 16.38234 | 102.72772 | 7390 ft | 219 kts | 213° |
| 2026-05-06 09:57 | 16.36906 | 102.71878 | 8020 ft | 242 kts | 216° |
| 2026-05-06 09:58 | 16.35455 | 102.70794 | 8319 ft | 277 kts | 217° |
| 2026-05-06 09:58 | 16.33831 | 102.69551 | 9067 ft | 290 kts | 217° |
| 2026-05-06 09:58 | 16.32205 | 102.68310 | 9768 ft | 296 kts | 218° |
| 2026-05-06 09:58 | 16.30534 | 102.67038 | 10028 ft | 300 kts | 217° |
| 2026-05-06 09:59 | 16.28834 | 102.65748 | 10030 ft | 308 kts | 217° |
| 2026-05-06 09:59 | 16.27022 | 102.64377 | 10417 ft | 330 kts | 217° |
| 2026-05-06 09:59 | 16.25140 | 102.62955 | 11257 ft | 338 kts | 216° |
| 2026-05-06 09:59 | 16.23217 | 102.61505 | 12202 ft | 343 kts | 216° |
| 2026-05-06 10:00 | 16.21264 | 102.60034 | 13224 ft | 348 kts | 216° |
| 2026-05-06 10:00 | 16.19295 | 102.58552 | 14187 ft | 351 kts | 217° |
| 2026-05-06 10:00 | 16.17304 | 102.57053 | 15076 ft | 356 kts | 217° |
| 2026-05-06 10:00 | 16.15282 | 102.55532 | 15951 ft | 361 kts | 217° |
| 2026-05-06 10:01 | 16.13231 | 102.53988 | 16824 ft | 367 kts | 217° |
| 2026-05-06 10:01 | 16.11142 | 102.52417 | 17701 ft | 372 kts | 217° |
| 2026-05-06 10:01 | 16.09026 | 102.50825 | 18508 ft | 378 kts | 217° |
| 2026-05-06 10:01 | 16.06915 | 102.49238 | 19251 ft | 381 kts | 217° |
| 2026-05-06 10:02 | 16.04756 | 102.47625 | 19745 ft | 384 kts | 216° |
| 2026-05-06 10:02 | 16.02562 | 102.46007 | 19830 ft | 389 kts | 216° |
| 2026-05-06 10:02 | 16.00327 | 102.44369 | 19841 ft | 402 kts | 216° |
| 2026-05-06 10:02 | 15.97984 | 102.42653 | 19847 ft | 421 kts | 216° |
| 2026-05-06 10:03 | 15.95534 | 102.40859 | 19841 ft | 438 kts | 216° |
| 2026-05-06 10:03 | 15.93001 | 102.39004 | 19840 ft | 452 kts | 216° |
| 2026-05-06 10:03 | 15.90401 | 102.37099 | 19838 ft | 461 kts | 216° |
| 2026-05-06 10:03 | 15.88628 | 102.35800 | 19834 ft | 462 kts | 216° |
| 2026-05-06 10:04 | 15.86005 | 102.33878 | 19826 ft | 461 kts | 216° |
| 2026-05-06 10:04 | 15.83379 | 102.31954 | 19834 ft | 479 kts | 216° |
| 2026-05-06 10:04 | 15.80676 | 102.29973 | 20230 ft | 469 kts | 216° |
| 2026-05-06 10:04 | 15.78012 | 102.28022 | 20164 ft | 468 kts | 216° |
| 2026-05-06 10:05 | 15.75372 | 102.26089 | 20025 ft | 462 kts | 216° |
| 2026-05-06 10:05 | 15.72753 | 102.24172 | 19957 ft | 460 kts | 216° |
| 2026-05-06 10:05 | 15.70133 | 102.22254 | 19888 ft | 461 kts | 216° |
| 2026-05-06 10:05 | 15.67507 | 102.20332 | 19839 ft | 461 kts | 216° |
| 2026-05-06 10:06 | 15.64894 | 102.18421 | 19817 ft | 460 kts | 216° |
| 2026-05-06 10:06 | 15.62279 | 102.16509 | 19813 ft | 460 kts | 216° |
| 2026-05-06 10:06 | 15.59656 | 102.14592 | 19811 ft | 461 kts | 216° |
| 2026-05-06 10:06 | 15.57035 | 102.12677 | 19808 ft | 462 kts | 216° |
| 2026-05-06 10:07 | 15.54401 | 102.10752 | 19811 ft | 462 kts | 216° |
| 2026-05-06 10:07 | 15.51771 | 102.08832 | 19809 ft | 463 kts | 216° |
| 2026-05-06 10:07 | 15.49138 | 102.06910 | 19808 ft | 463 kts | 216° |
| 2026-05-06 10:07 | 15.46501 | 102.04985 | 19809 ft | 463 kts | 216° |
| 2026-05-06 10:08 | 15.43868 | 102.03064 | 19807 ft | 463 kts | 216° |
| 2026-05-06 10:08 | 15.41233 | 102.01142 | 19805 ft | 462 kts | 216° |
| 2026-05-06 10:08 | 15.38605 | 101.99226 | 19808 ft | 462 kts | 216° |
| 2026-05-06 10:08 | 15.35979 | 101.97312 | 19806 ft | 462 kts | 216° |
| 2026-05-06 10:09 | 15.33355 | 101.95400 | 19805 ft | 461 kts | 216° |
| 2026-05-06 10:09 | 15.30727 | 101.93486 | 19791 ft | 462 kts | 216° |
| 2026-05-06 10:09 | 15.28096 | 101.91570 | 19812 ft | 462 kts | 216° |
| 2026-05-06 10:09 | 15.25498 | 101.89679 | 19816 ft | 463 kts | 216° |
| 2026-05-06 10:10 | 15.22828 | 101.87736 | 19830 ft | 464 kts | 216° |
| 2026-05-06 10:10 | 15.20219 | 101.85837 | 19812 ft | 465 kts | 216° |
| 2026-05-06 10:10 | 15.17565 | 101.83908 | 19802 ft | 464 kts | 216° |
| 2026-05-06 10:10 | 15.14928 | 101.81986 | 19818 ft | 463 kts | 216° |
| 2026-05-06 10:11 | 15.12400 | 101.79911 | 19796 ft | 462 kts | 223° |
| 2026-05-06 10:11 | 15.10150 | 101.77541 | 19820 ft | 461 kts | 227° |
| 2026-05-06 10:11 | 15.07942 | 101.75134 | 19820 ft | 461 kts | 227° |
| 2026-05-06 10:11 | 15.05714 | 101.72740 | 19822 ft | 461 kts | 227° |
| 2026-05-06 10:12 | 15.03477 | 101.70356 | 19828 ft | 462 kts | 226° |
| 2026-05-06 10:12 | 15.01231 | 101.67976 | 19827 ft | 462 kts | 226° |
| 2026-05-06 10:12 | 14.98988 | 101.65605 | 19828 ft | 462 kts | 226° |
| 2026-05-06 10:12 | 14.96732 | 101.63223 | 19827 ft | 462 kts | 226° |
| 2026-05-06 10:13 | 14.94486 | 101.60851 | 19827 ft | 462 kts | 226° |
| 2026-05-06 10:13 | 14.92235 | 101.58476 | 19825 ft | 462 kts | 226° |
| 2026-05-06 10:13 | 14.89979 | 101.56095 | 19840 ft | 462 kts | 226° |
| 2026-05-06 10:13 | 14.87731 | 101.53722 | 19848 ft | 462 kts | 226° |
| 2026-05-06 10:14 | 14.85507 | 101.51374 | 19849 ft | 464 kts | 226° |
| 2026-05-06 10:14 | 14.83244 | 101.48987 | 19625 ft | 454 kts | 226° |
| 2026-05-06 10:14 | 14.81084 | 101.46709 | 19045 ft | 446 kts | 226° |
| 2026-05-06 10:14 | 14.78934 | 101.44444 | 18540 ft | 436 kts | 226° |
| 2026-05-06 10:15 | 14.76839 | 101.42237 | 18101 ft | 426 kts | 226° |
| 2026-05-06 10:15 | 14.74759 | 101.40045 | 17848 ft | 429 kts | 226° |
| 2026-05-06 10:15 | 14.72667 | 101.37840 | 17848 ft | 431 kts | 226° |
| 2026-05-06 10:15 | 14.70638 | 101.35703 | 17594 ft | 402 kts | 226° |
| 2026-05-06 10:16 | 14.68774 | 101.33743 | 17190 ft | 369 kts | 226° |
| 2026-05-06 10:16 | 14.66995 | 101.31872 | 16739 ft | 365 kts | 226° |
| 2026-05-06 10:16 | 14.65173 | 101.29954 | 15619 ft | 382 kts | 226° |
| 2026-05-06 10:16 | 14.63277 | 101.27957 | 14559 ft | 396 kts | 226° |
| 2026-05-06 10:17 | 14.61343 | 101.25923 | 13875 ft | 397 kts | 226° |
| 2026-05-06 10:17 | 14.59413 | 101.23894 | 13203 ft | 396 kts | 226° |
| 2026-05-06 10:17 | 14.57500 | 101.21883 | 12760 ft | 388 kts | 226° |
| 2026-05-06 10:17 | 14.55632 | 101.19921 | 12396 ft | 378 kts | 225° |
| 2026-05-06 10:18 | 14.53805 | 101.18001 | 12033 ft | 370 kts | 225° |
| 2026-05-06 10:18 | 14.52018 | 101.16125 | 11592 ft | 364 kts | 226° |
| 2026-05-06 10:18 | 14.50247 | 101.14264 | 11073 ft | 361 kts | 225° |
| 2026-05-06 10:18 | 14.48489 | 101.12419 | 10552 ft | 359 kts | 225° |
| 2026-05-06 10:19 | 14.46743 | 101.10586 | 10053 ft | 357 kts | 225° |
| 2026-05-06 10:19 | 14.45032 | 101.08790 | 9569 ft | 354 kts | 225° |
| 2026-05-06 10:19 | 14.43294 | 101.06967 | 9079 ft | 350 kts | 225° |
| 2026-05-06 10:19 | 14.41628 | 101.05219 | 8995 ft | 334 kts | 225° |
| 2026-05-06 10:20 | 14.40036 | 101.03550 | 8890 ft | 319 kts | 225° |
| 2026-05-06 10:20 | 14.38530 | 101.01971 | 8798 ft | 306 kts | 225° |
| 2026-05-06 10:20 | 14.37065 | 101.00435 | 8702 ft | 295 kts | 225° |
| 2026-05-06 10:20 | 14.35647 | 100.98949 | 8564 ft | 286 kts | 225° |
| 2026-05-06 10:21 | 14.34273 | 100.97510 | 8365 ft | 280 kts | 225° |
| 2026-05-06 10:21 | 14.32885 | 100.96055 | 7966 ft | 282 kts | 225° |
| 2026-05-06 10:21 | 14.31498 | 100.94603 | 7771 ft | 286 kts | 225° |
| 2026-05-06 10:21 | 14.30124 | 100.93163 | 7622 ft | 284 kts | 225° |
| 2026-05-06 10:22 | 14.28774 | 100.91748 | 7293 ft | 267 kts | 224° |
| 2026-05-06 10:22 | 14.27506 | 100.90420 | 6814 ft | 254 kts | 224° |
| 2026-05-06 10:22 | 14.26295 | 100.89150 | 6506 ft | 244 kts | 224° |
| 2026-05-06 10:22 | 14.25098 | 100.87900 | 6279 ft | 245 kts | 224° |
| 2026-05-06 10:23 | 14.23917 | 100.86666 | 6002 ft | 244 kts | 224° |
| 2026-05-06 10:23 | 14.22728 | 100.85421 | 5728 ft | 243 kts | 224° |
| 2026-05-06 10:23 | 14.21544 | 100.84182 | 5473 ft | 241 kts | 224° |
| 2026-05-06 10:23 | 14.20412 | 100.82998 | 5243 ft | 227 kts | 224° |
| 2026-05-06 10:24 | 14.19305 | 100.81839 | 4983 ft | 225 kts | 223° |
| 2026-05-06 10:24 | 14.18208 | 100.80692 | 4725 ft | 223 kts | 223° |
| 2026-05-06 10:24 | 14.17121 | 100.79557 | 4469 ft | 221 kts | 223° |
| 2026-05-06 10:24 | 14.16047 | 100.78435 | 4236 ft | 219 kts | 224° |
| 2026-05-06 10:25 | 14.14985 | 100.77325 | 4031 ft | 215 kts | 223° |
| 2026-05-06 10:25 | 14.13956 | 100.76249 | 3914 ft | 206 kts | 224° |
| 2026-05-06 10:25 | 14.12973 | 100.75220 | 3800 ft | 198 kts | 223° |
| 2026-05-06 10:25 | 14.12010 | 100.74214 | 3737 ft | 196 kts | 224° |
| 2026-05-06 10:26 | 14.11058 | 100.73221 | 3656 ft | 195 kts | 224° |
| 2026-05-06 10:26 | 14.10110 | 100.72230 | 3599 ft | 194 kts | 223° |
| 2026-05-06 10:26 | 14.09161 | 100.71240 | 3484 ft | 195 kts | 223° |
| 2026-05-06 10:26 | 14.08199 | 100.70250 | 3270 ft | 197 kts | 220° |
| 2026-05-06 10:27 | 14.07105 | 100.69437 | 3055 ft | 193 kts | 209° |
| 2026-05-06 10:27 | 14.05949 | 100.68746 | 2816 ft | 191 kts | 206° |
| 2026-05-06 10:27 | 14.05558 | 100.68523 | 2755 ft | 190 kts | 206° |
| 2026-05-06 10:27 | 14.05103 | 100.68265 | 2644 ft | 190 kts | 206° |
| 2026-05-06 10:28 | 14.03944 | 100.67612 | 2412 ft | 189 kts | 206° |
| 2026-05-06 10:28 | 14.02810 | 100.66972 | 2187 ft | 175 kts | 205° |
| 2026-05-06 10:28 | 14.01765 | 100.66383 | 1989 ft | 170 kts | 205° |
| 2026-05-06 10:28 | 14.00732 | 100.65802 | 1747 ft | 166 kts | 206° |
| 2026-05-06 10:29 | 13.99760 | 100.65253 | 1554 ft | 152 kts | 206° |
| 2026-05-06 10:29 | 13.98850 | 100.64740 | 1389 ft | 150 kts | 206° |
| 2026-05-06 10:29 | 13.98246 | 100.64399 | 1222 ft | 148 kts | 205° |
| 2026-05-06 10:30 | 13.97536 | 100.64001 | 1089 ft | 138 kts | 209° |
| 2026-05-06 10:30 | 13.96715 | 100.63535 | 883 ft | 129 kts | 208° |
| 2026-05-06 10:30 | 13.95925 | 100.63090 | 768 ft | 130 kts | 209° |
| 2026-05-06 10:31 | 13.95114 | 100.62635 | 612 ft | 135 kts | 208° |
| 2026-05-06 10:31 | 13.94286 | 100.62167 | 421 ft | 134 kts | 208° |
| 2026-05-06 10:31 | 13.93472 | 100.61708 | 243 ft | 133 kts | 208° |
| 2026-05-06 10:31 | 13.92656 | 100.61250 | 69 ft | 133 kts | 207° |
| 2026-05-06 10:32 | 13.91919 | 100.60840 | 25 ft | 106 kts | 209° |
| 2026-05-06 10:32 | 13.91372 | 100.60533 | 19 ft | 81 kts | 208° |
| 2026-05-06 10:32 | 13.90934 | 100.60288 | 26 ft | 66 kts | 208° |
| 2026-05-06 10:32 | 13.90563 | 100.60079 | 23 ft | 56 kts | 208° |
| 2026-05-06 10:33 | 13.90328 | 100.59949 | 25 ft | 22 kts | 191° |
| 2026-05-06 10:33 | 13.90279 | 100.59958 | 24 ft | 22 kts | 151° |
| 2026-05-06 10:33 | 13.90192 | 100.60089 | 23 ft | 25 kts | 118° |
| 2026-05-06 10:33 | 13.90107 | 100.60252 | 26 ft | 26 kts | 118° |
| 2026-05-06 10:34 | 13.90072 | 100.60401 | 24 ft | 20 kts | 53° |
| 2026-05-06 10:34 | 13.90196 | 100.60478 | 26 ft | 22 kts | 28° |
| 2026-05-06 10:34 | 13.90328 | 100.60551 | 25 ft | 22 kts | 28° |
| 2026-05-06 10:34 | 13.90459 | 100.60625 | 26 ft | 22 kts | 29° |
| 2026-05-06 10:35 | 13.90590 | 100.60699 | 23 ft | 22 kts | 27° |
| 2026-05-06 10:35 | 13.90720 | 100.60771 | 24 ft | 22 kts | 29° |
| 2026-05-06 10:35 | 13.90747 | 100.60786 | 25 ft | 22 kts | 29° |
| 2026-05-06 10:35 | 13.90819 | 100.60828 | 25 ft | 22 kts | 29° |
| 2026-05-06 10:36 | 13.90951 | 100.60903 | 24 ft | 22 kts | 28° |
| 2026-05-06 10:36 | 13.90994 | 100.60926 | 25 ft | 15 kts | 28° |
| 2026-05-06 10:36 | 13.91047 | 100.60956 | 23 ft | 15 kts | 29° |
| 2026-05-06 10:36 | 13.91057 | 100.60996 | 26 ft | 2 kts | 110° |
| 2026-05-06 10:37 | 13.91054 | 100.61003 | 23 ft | 0 kts | 119° |
| 2026-05-06 10:37 | 13.91053 | 100.61005 | 23 ft | 0 kts | 119° |